createdAt,value
2022-11-10T00:01:04.947Z,100895.91
2022-11-10T00:03:53.933Z,100892.84
2022-11-10T00:06:41.390Z,100902.13
2022-11-10T00:09:29.056Z,100903.93
2022-11-10T00:12:16.590Z,100904.35
2022-11-10T00:15:24.076Z,100899.21
2022-11-10T00:18:11.873Z,100901.63
2022-11-10T00:21:04.807Z,100901.21
2022-11-10T00:23:52.203Z,100903.54
2022-11-10T00:26:39.764Z,100911.25
2022-11-10T00:29:27.027Z,100916.60
2022-11-10T00:32:16.701Z,100914.98
2022-11-10T00:35:04.928Z,100918.91
2022-11-10T00:37:52.751Z,100917.22
2022-11-10T00:40:40.365Z,100918.78
2022-11-10T00:43:30.920Z,100917.74
2022-11-10T00:46:18.901Z,100919.05
2022-11-10T00:49:06.979Z,100913.66
2022-11-10T00:51:54.810Z,100912.38
2022-11-10T00:54:44.907Z,100917.88
2022-11-10T00:57:32.312Z,100913.86
2022-11-10T01:00:22.698Z,100914.86
2022-11-10T01:03:15.453Z,100909.38
2022-11-10T01:06:06.536Z,100911.23
2022-11-10T01:08:53.951Z,100910.96
2022-11-10T01:11:41.313Z,100910.16
2022-11-10T01:14:29.117Z,100908.48
2022-11-10T01:17:16.927Z,100913.65
2022-11-10T01:20:10.800Z,100914.16
2022-11-10T01:22:59.107Z,100917.65
2022-11-10T01:25:46.928Z,100930.72
2022-11-10T01:28:37.527Z,100937.07
2022-11-10T01:31:24.748Z,100925.57
2022-11-10T01:34:12.292Z,100925.45
2022-11-10T01:36:59.987Z,100932.82
2022-11-10T01:39:47.747Z,100924.84
2022-11-10T01:42:49.203Z,100924.66
2022-11-10T01:45:45.583Z,100929.32
2022-11-10T01:51:48.240Z,100938.77
2022-11-10T01:54:41.431Z,100939.94
2022-11-10T01:57:29.722Z,100940.90
2022-11-10T02:00:18.261Z,100940.69
2022-11-10T02:03:13.292Z,100939.91
2022-11-10T02:06:01.653Z,100935.05
2022-11-10T02:08:50.251Z,100937.09
2022-11-10T02:11:39.639Z,100938.11
2022-11-10T02:14:29.720Z,100939.67
2022-11-10T02:17:19.549Z,100937.32
2022-11-10T02:20:11.619Z,100941.63
2022-11-10T02:22:59.392Z,100935.74
2022-11-10T02:25:47.140Z,100934.86
2022-11-10T02:28:35.698Z,100933.95
2022-11-10T02:31:23.206Z,100940.77
2022-11-10T02:34:10.684Z,100947.89
2022-11-10T02:36:58.263Z,100943.33
2022-11-10T02:39:48.061Z,100945.11
2022-11-10T02:42:35.656Z,100946.32
2022-11-10T02:45:23.207Z,100950.34
2022-11-10T02:48:14.808Z,100957.12
2022-11-10T02:51:02.778Z,100959.77
2022-11-10T02:53:52.994Z,100970.14
2022-11-10T02:56:40.957Z,100969.73
2022-11-10T02:59:28.215Z,100977.49
2022-11-10T03:02:15.765Z,100976.48
2022-11-10T03:05:06.118Z,100981.30
2022-11-10T03:07:55.401Z,100983.91
2022-11-10T03:10:42.991Z,100983.36
2022-11-10T03:13:45.431Z,100987.48
2022-11-10T03:16:41.191Z,100993.55
2022-11-10T03:19:28.679Z,100990.46
2022-11-10T03:22:16.712Z,100989.23
2022-11-10T03:25:05.518Z,100989.81
2022-11-10T03:27:52.844Z,100992.09
2022-11-10T03:30:40.876Z,100998.41
2022-11-10T03:33:28.213Z,100995.83
2022-11-10T03:36:15.824Z,100995.88
2022-11-10T03:39:03.729Z,100994.82
2022-11-10T03:41:51.276Z,100994.30
2022-11-10T03:44:39.231Z,100990.57
2022-11-10T03:47:26.792Z,100993.66
2022-11-10T03:50:14.905Z,100996.95
2022-11-10T03:53:02.211Z,100999.28
2022-11-10T03:55:52.183Z,100995.66
2022-11-10T03:58:40.142Z,100997.05
2022-11-10T04:01:27.891Z,100992.20
2022-11-10T04:04:30.708Z,100995.47
2022-11-10T04:07:37.456Z,100990.89
2022-11-10T04:10:25.948Z,100989.42
2022-11-10T04:13:34.882Z,100993.84
2022-11-10T04:16:22.722Z,100996.45
2022-11-10T04:19:37.343Z,100998.06
2022-11-10T04:22:39.681Z,100999.36
2022-11-10T04:25:27.339Z,101003.46
2022-11-10T04:28:14.641Z,101008.55
2022-11-10T04:31:06.478Z,101017.17
2022-11-10T04:33:57.263Z,101018.02
2022-11-10T04:36:48.609Z,101016.44
2022-11-10T04:39:36.022Z,101014.02
2022-11-10T04:42:23.492Z,101015.67
2022-11-10T04:45:14.331Z,101021.16
2022-11-10T04:48:01.870Z,101020.07
2022-11-10T04:50:49.439Z,101020.19
2022-11-10T04:53:36.994Z,101018.45
2022-11-10T04:56:25.126Z,101019.56
2022-11-10T04:59:12.610Z,101015.21
2022-11-10T05:02:00.238Z,101019.66
2022-11-10T05:04:47.724Z,101021.53
2022-11-10T05:07:35.072Z,101022.93
2022-11-10T05:10:22.736Z,101031.30
2022-11-10T05:13:10.933Z,101032.14
2022-11-10T05:15:58.455Z,101035.29
2022-11-10T05:18:46.348Z,101037.18
2022-11-10T05:21:33.693Z,101039.48
2022-11-10T05:24:21.130Z,101039.66
2022-11-10T05:27:08.804Z,101045.20
2022-11-10T05:29:56.244Z,101055.05
2022-11-10T05:32:43.749Z,101061.80
2022-11-10T05:35:34.945Z,101061.34
2022-11-10T05:38:22.930Z,101065.48
2022-11-10T05:41:10.925Z,101070.02
2022-11-10T05:43:58.287Z,101076.44
2022-11-10T05:46:46.173Z,101073.58
2022-11-10T05:49:34.045Z,101087.71
2022-11-10T05:52:21.217Z,101090.34
2022-11-10T05:55:10.589Z,101103.44
2022-11-10T05:57:59.291Z,101111.44
2022-11-10T06:00:46.790Z,101115.98
2022-11-10T06:03:34.047Z,101120.79
2022-11-10T06:06:22.459Z,101115.02
2022-11-10T06:09:12.626Z,101121.80
2022-11-10T06:12:01.075Z,101126.17
2022-11-10T06:14:49.072Z,101120.21
2022-11-10T06:17:38.608Z,101130.56
2022-11-10T06:20:28.743Z,101142.73
2022-11-10T06:23:18.780Z,101148.99
2022-11-10T06:26:06.776Z,101147.84
2022-11-10T06:28:54.422Z,101152.70
2022-11-10T06:31:41.590Z,101163.83
2022-11-10T06:34:29.154Z,101170.89
2022-11-10T06:37:16.974Z,101178.08
2022-11-10T06:40:06.474Z,101188.05
2022-11-10T06:42:54.481Z,101189.52
2022-11-10T06:45:42.351Z,101194.84
2022-11-10T06:48:29.959Z,101200.93
2022-11-10T06:51:17.921Z,101201.67
2022-11-10T06:54:06.920Z,101200.38
2022-11-10T06:56:54.378Z,101212.20
2022-11-10T06:59:41.960Z,101217.23
2022-11-10T07:02:29.567Z,101224.52
2022-11-10T07:05:17.180Z,101225.73
2022-11-10T07:08:09.064Z,101231.91
2022-11-10T07:10:58.676Z,101236.15
2022-11-10T07:13:48.896Z,101237.00
2022-11-10T07:16:36.991Z,101242.58
2022-11-10T07:19:24.619Z,101242.06
2022-11-10T07:22:14.375Z,101240.22
2022-11-10T07:25:01.760Z,101244.46
2022-11-10T07:27:53.955Z,101257.71
2022-11-10T07:30:41.420Z,101257.81
2022-11-10T07:33:29.379Z,101255.15
2022-11-10T07:36:16.710Z,101259.60
2022-11-10T07:39:06.633Z,101264.66
2022-11-10T07:41:54.110Z,101268.97
2022-11-10T07:44:41.705Z,101271.05
2022-11-10T07:47:29.664Z,101276.26
2022-11-10T07:50:17.695Z,101276.10
2022-11-10T07:53:07.639Z,101278.81
2022-11-10T07:55:57.390Z,101284.65
2022-11-10T07:58:46.622Z,101290.65
2022-11-10T08:01:36.971Z,101297.66
2022-11-10T08:04:24.717Z,101301.09
2022-11-10T08:07:12.275Z,101304.21
2022-11-10T08:10:00.611Z,101306.72
2022-11-10T08:12:55.404Z,101307.90
2022-11-10T08:15:43.220Z,101316.45
2022-11-10T08:18:35.095Z,101322.67
2022-11-10T08:21:23.290Z,101324.00
2022-11-10T08:24:11.125Z,101326.89
2022-11-10T08:27:01.031Z,101327.77
2022-11-10T08:29:49.006Z,101333.09
2022-11-10T08:32:36.390Z,101335.03
2022-11-10T08:35:25.446Z,101340.91
2022-11-10T08:38:14.777Z,101344.30
2022-11-10T08:41:13.500Z,101347.48
2022-11-10T08:44:01.111Z,101351.96
2022-11-10T08:46:49.136Z,101353.35
2022-11-10T08:49:36.852Z,101358.76
2022-11-10T08:52:24.602Z,101370.32
2022-11-10T08:55:12.303Z,101370.23
2022-11-10T08:58:00.680Z,101380.98
2022-11-10T09:00:48.831Z,101386.70
2022-11-10T09:03:36.389Z,101393.91
2022-11-10T09:06:23.657Z,101395.55
2022-11-10T09:09:11.537Z,101398.63
2022-11-10T09:11:59.447Z,101405.65
2022-11-10T09:14:48.482Z,101408.77
2022-11-10T09:17:36.590Z,101409.11
2022-11-10T09:20:24.075Z,101409.70
2022-11-10T09:23:13.587Z,101410.57
2022-11-10T09:26:01.594Z,101413.92
2022-11-10T09:28:50.486Z,101417.79
2022-11-10T09:31:37.949Z,101424.23
2022-11-10T09:34:25.448Z,101428.09
2022-11-10T09:37:13.141Z,101424.56
2022-11-10T09:40:01.531Z,101435.12
2022-11-10T09:42:53.964Z,101439.16
2022-11-10T09:45:46.218Z,101438.73
2022-11-10T09:48:38.783Z,101446.27
2022-11-10T09:51:30.300Z,101451.89
2022-11-10T09:54:33.344Z,101451.23
2022-11-10T09:57:24.287Z,101458.26
2022-11-10T10:00:16.433Z,101458.84
2022-11-10T10:03:08.147Z,101461.51
2022-11-10T10:06:06.417Z,101463.46
2022-11-10T10:09:06.580Z,101466.47
2022-11-10T10:12:07.989Z,101467.35
2022-11-10T10:15:11.601Z,101473.81
2022-11-10T10:18:12.721Z,101473.63
2022-11-10T10:21:15.817Z,101478.02
2022-11-10T10:24:18.032Z,101478.77
2022-11-10T10:27:12.883Z,101479.03
2022-11-10T10:30:00.298Z,101478.80
2022-11-10T10:32:48.026Z,101486.53
2022-11-10T10:35:41.918Z,101483.46
2022-11-10T10:38:34.599Z,101485.13
2022-11-10T10:41:25.049Z,101481.65
2022-11-10T10:44:15.041Z,101490.09
2022-11-10T10:47:04.004Z,101490.94
2022-11-10T10:49:51.779Z,101490.89
2022-11-10T10:52:40.660Z,101490.62
2022-11-10T10:55:30.141Z,101495.09
2022-11-10T10:58:24.392Z,101492.30
2022-11-10T11:01:25.032Z,101493.58
2022-11-10T11:04:29.343Z,101494.01
2022-11-10T11:07:23.309Z,101498.57
2022-11-10T11:10:24.714Z,101502.67
2022-11-10T11:13:20.615Z,101499.18
2022-11-10T11:16:11.813Z,101500.56
2022-11-10T11:19:02.285Z,101503.24
2022-11-10T11:22:05.304Z,101504.64
2022-11-10T11:25:00.774Z,101508.77
2022-11-10T11:27:59.521Z,101514.05
2022-11-10T11:31:03.178Z,101516.17
2022-11-10T11:33:59.462Z,101523.15
2022-11-10T11:36:53.373Z,101529.90
2022-11-10T11:39:53.932Z,101533.81
2022-11-10T11:42:55.412Z,101544.23
2022-11-10T11:45:51.953Z,101543.98
2022-11-10T11:49:01.182Z,101548.79
2022-11-10T11:52:01.698Z,101556.45
2022-11-10T11:55:04.032Z,101560.63
2022-11-10T11:58:12.880Z,101556.41
2022-11-10T12:01:18.040Z,101558.80
2022-11-10T12:04:33.172Z,101554.42
2022-11-10T12:07:35.087Z,101550.13
2022-11-10T12:10:41.894Z,101558.20
2022-11-10T12:13:40.223Z,101557.11
2022-11-10T12:16:31.298Z,101556.00
2022-11-10T12:19:30.329Z,101555.30
2022-11-10T12:22:31.069Z,101558.70
2022-11-10T12:25:30.621Z,101553.95
2022-11-10T12:28:27.122Z,101559.45
2022-11-10T12:31:20.641Z,101564.13
2022-11-10T12:34:16.245Z,101564.22
2022-11-10T12:37:07.163Z,101569.65
2022-11-10T12:40:02.834Z,101576.46
2022-11-10T12:42:55.570Z,101580.92
2022-11-10T12:45:46.674Z,101580.96
2022-11-10T12:48:52.436Z,101583.98
2022-11-10T12:51:49.256Z,101595.88
2022-11-10T12:54:37.793Z,101594.25
2022-11-10T12:57:28.783Z,101590.81
2022-11-10T13:00:28.505Z,101592.48
2022-11-10T13:03:27.369Z,101597.23
2022-11-10T13:06:27.007Z,101596.95
2022-11-10T13:09:26.385Z,101602.77
2022-11-10T13:12:19.910Z,101608.95
2022-11-10T13:15:39.219Z,101614.23
2022-11-10T13:18:58.536Z,101623.27
2022-11-10T13:22:10.261Z,101632.23
2022-11-10T13:25:29.963Z,101636.32
2022-11-10T13:28:56.549Z,101643.52
2022-11-10T13:31:56.465Z,101650.45
2022-11-10T13:34:44.688Z,101649.05
2022-11-10T13:37:52.344Z,101649.23
2022-11-10T13:40:40.380Z,101654.06
2022-11-10T13:43:27.967Z,101653.48
2022-11-10T13:46:15.894Z,101658.11
2022-11-10T13:49:26.098Z,101663.87
2022-11-10T13:52:17.948Z,101665.80
2022-11-10T13:55:27.780Z,101669.48
2022-11-10T13:58:25.752Z,101668.83
2022-11-10T14:01:29.591Z,101676.29
2022-11-10T14:04:39.620Z,101681.19
2022-11-10T14:07:30.010Z,101683.55
2022-11-10T14:10:26.316Z,101685.27
2022-11-10T14:13:18.927Z,101690.27
2022-11-10T14:16:16.904Z,101700.41
2022-11-10T14:22:34.639Z,101712.86
2022-11-10T14:25:28.900Z,101714.61
2022-11-10T14:28:30.649Z,101723.78
2022-11-10T14:31:23.348Z,101726.84
2022-11-10T14:34:17.307Z,101735.67
2022-11-10T14:37:06.383Z,101745.96
2022-11-10T14:39:56.641Z,101746.70
2022-11-10T14:42:46.468Z,101748.44
2022-11-10T14:45:34.044Z,101756.33
2022-11-10T14:48:25.020Z,101763.98
2022-11-10T14:51:15.427Z,101762.52
2022-11-10T14:54:03.487Z,101758.48
2022-11-10T14:56:51.272Z,101753.82
2022-11-10T14:59:39.799Z,101758.00
2022-11-10T15:02:27.947Z,101764.75
2022-11-10T15:05:18.052Z,101770.66
2022-11-10T15:08:06.521Z,101773.83
2022-11-10T15:10:55.664Z,101778.20
2022-11-10T15:13:43.082Z,101781.73
2022-11-10T15:16:33.381Z,101780.25
2022-11-10T15:19:23.879Z,101787.86
2022-11-10T15:22:19.511Z,101796.40
2022-11-10T15:25:15.637Z,101811.90
2022-11-10T15:28:06.371Z,101818.74
2022-11-10T15:30:56.172Z,101824.64
2022-11-10T15:33:47.679Z,101833.10
2022-11-10T15:36:38.918Z,101840.14
2022-11-10T15:39:27.660Z,101851.73
2022-11-10T15:42:17.447Z,101861.52
2022-11-10T15:45:06.281Z,101871.25
2022-11-10T15:47:53.600Z,101870.62
2022-11-10T15:50:44.408Z,101872.30
2022-11-10T15:53:40.799Z,101870.77
2022-11-10T15:56:28.423Z,101879.96
2022-11-10T15:59:18.300Z,101888.43
2022-11-10T16:02:17.381Z,101897.46
2022-11-10T16:05:11.274Z,101897.73
2022-11-10T16:07:58.801Z,101906.34
2022-11-10T16:10:51.180Z,101912.70
2022-11-10T16:13:39.802Z,101915.90
2022-11-10T16:16:27.708Z,101922.84
2022-11-10T16:19:15.265Z,101932.26
2022-11-10T16:22:02.941Z,101934.98
2022-11-10T16:24:50.362Z,101944.41
2022-11-10T16:28:02.520Z,101944.19
2022-11-10T16:31:15.545Z,101941.46
2022-11-10T16:34:03.223Z,101945.02
2022-11-10T16:36:50.821Z,101943.44
2022-11-10T16:39:38.547Z,101943.70
2022-11-10T16:42:26.048Z,101946.45
2022-11-10T16:45:23.300Z,101945.56
2022-11-10T16:48:28.196Z,101947.29
2022-11-10T16:51:17.656Z,101948.88
2022-11-10T16:57:27.080Z,101949.31
2022-11-10T17:00:19.394Z,101951.27
2022-11-10T17:03:12.793Z,101953.35
2022-11-10T17:06:00.826Z,101951.36
2022-11-10T17:08:51.064Z,101957.42
2022-11-10T17:11:38.737Z,101958.05
2022-11-10T17:14:26.689Z,101952.26
2022-11-10T17:17:18.042Z,101962.20
2022-11-10T17:20:09.594Z,101957.84
2022-11-10T17:22:57.499Z,101962.16
2022-11-10T17:25:45.818Z,101968.01
2022-11-10T17:28:33.385Z,101972.70
2022-11-10T17:31:21.325Z,101964.91
2022-11-10T17:34:08.692Z,101961.67
2022-11-10T17:36:56.743Z,101957.45
2022-11-10T17:39:43.998Z,101964.59
2022-11-10T17:42:31.429Z,101967.94
2022-11-10T17:45:21.096Z,101970.85
2022-11-10T17:48:08.397Z,101975.73
2022-11-10T17:50:55.575Z,101983.63
2022-11-10T17:53:43.489Z,101986.69
2022-11-10T17:56:30.860Z,101990.92
2022-11-10T17:59:18.191Z,101993.45
2022-11-10T18:02:08.821Z,101989.36
2022-11-10T18:04:56.688Z,101984.18
2022-11-10T18:07:49.654Z,101990.19
2022-11-10T18:10:40.501Z,101991.77
2022-11-10T18:13:29.628Z,101993.55
2022-11-10T18:16:17.691Z,101996.74
2022-11-10T18:19:06.870Z,102001.24
2022-11-10T18:21:54.455Z,102012.61
2022-11-10T18:24:42.395Z,102018.50
2022-11-10T18:27:30.852Z,102020.33
2022-11-10T18:30:18.937Z,102026.73
2022-11-10T18:33:07.249Z,102036.17
2022-11-10T18:35:59.620Z,102042.34
2022-11-10T18:38:47.644Z,102049.98
2022-11-10T18:41:51.712Z,102052.64
2022-11-10T18:44:39.514Z,102048.60
2022-11-10T18:47:26.860Z,102047.39
2022-11-10T18:50:14.412Z,102043.77
2022-11-10T18:53:03.678Z,102037.55
2022-11-10T18:55:57.392Z,102034.94
2022-11-10T19:01:47.261Z,102033.09
2022-11-10T19:04:35.782Z,102027.22
2022-11-10T19:07:23.538Z,102028.26
2022-11-10T19:10:11.365Z,102028.02
2022-11-10T19:12:59.320Z,102032.72
2022-11-10T19:15:47.059Z,102041.36
2022-11-10T19:18:34.216Z,102043.48
2022-11-10T19:21:24.051Z,102044.47
2022-11-10T19:24:11.648Z,102044.70
2022-11-10T19:27:01.690Z,102042.61
2022-11-10T19:29:49.153Z,102044.35
2022-11-10T19:32:39.574Z,102041.98
2022-11-10T19:35:26.940Z,102047.50
2022-11-10T19:38:14.611Z,102044.80
2022-11-10T19:41:06.472Z,102047.59
2022-11-10T19:43:55.281Z,102050.66
2022-11-10T19:46:45.600Z,102048.11
2022-11-10T19:49:33.016Z,102044.10
2022-11-10T19:52:20.505Z,102044.23
2022-11-10T19:55:08.729Z,102040.99
2022-11-10T19:57:56.600Z,102048.92
2022-11-10T20:00:47.064Z,102046.90
2022-11-10T20:03:34.898Z,102057.70
2022-11-10T20:06:23.268Z,102058.27
2022-11-10T20:09:11.072Z,102057.82
2022-11-10T20:11:59.876Z,102058.13
2022-11-10T20:14:47.700Z,102056.05
2022-11-10T20:17:35.102Z,102049.80
2022-11-10T20:20:22.751Z,102046.68
2022-11-10T20:23:12.232Z,102050.13
2022-11-10T20:26:06.979Z,102052.27
2022-11-10T20:28:55.122Z,102051.42
2022-11-10T20:31:43.211Z,102049.55
2022-11-10T20:34:30.515Z,102052.44
2022-11-10T20:37:18.368Z,102053.60
2022-11-10T20:40:18.897Z,102060.39
2022-11-10T20:43:15.023Z,102063.14
2022-11-10T20:46:04.010Z,102065.86
2022-11-10T20:48:51.516Z,102065.10
2022-11-10T20:51:39.697Z,102072.44
2022-11-10T20:54:27.449Z,102062.98
2022-11-10T20:57:15.501Z,102062.89
2022-11-10T21:00:03.217Z,102061.08
2022-11-10T21:02:50.838Z,102072.84
2022-11-10T21:05:38.374Z,102073.98
2022-11-10T21:08:25.781Z,102076.04
2022-11-10T21:11:35.518Z,102075.83
2022-11-10T21:14:22.719Z,102080.30
2022-11-10T21:17:10.201Z,102076.95
2022-11-10T21:19:57.559Z,102077.90
2022-11-10T21:22:45.224Z,102076.44
2022-11-10T21:25:39.142Z,102073.13
2022-11-10T21:28:27.231Z,102075.54
2022-11-10T21:31:14.618Z,102075.44
2022-11-10T21:34:02.170Z,102079.96
2022-11-10T21:37:21.112Z,102077.64
2022-11-10T21:40:11.260Z,102083.73
2022-11-10T21:42:59.480Z,102086.45
2022-11-10T21:45:47.507Z,102089.08
2022-11-10T21:48:35.460Z,102093.88
2022-11-10T21:51:26.791Z,102096.60
2022-11-10T21:54:14.305Z,102095.91
2022-11-10T21:57:01.858Z,102099.98
2022-11-10T21:59:49.180Z,102101.14
2022-11-10T22:02:36.657Z,102105.23
2022-11-10T22:05:53.187Z,102106.55
2022-11-10T22:09:08.361Z,102109.14
2022-11-10T22:12:42.787Z,102113.80
2022-11-10T22:15:53.987Z,102113.85
2022-11-10T22:18:44.416Z,102117.89
2022-11-10T22:21:34.828Z,102121.39
2022-11-10T22:24:28.840Z,102117.91
2022-11-10T22:27:18.418Z,102127.48
2022-11-10T22:30:08.141Z,102132.40
2022-11-10T22:33:27.004Z,102138.59
2022-11-10T22:36:17.171Z,102138.63
2022-11-10T22:39:08.813Z,102143.33
2022-11-10T22:42:24.311Z,102146.39
2022-11-10T22:45:12.401Z,102145.04
2022-11-10T22:48:18.686Z,102147.38
2022-11-10T22:51:07.659Z,102154.65
2022-11-10T22:53:55.940Z,102158.48
2022-11-10T22:56:46.610Z,102154.70
2022-11-10T22:59:47.401Z,102160.61
2022-11-10T23:02:43.268Z,102157.48
2022-11-10T23:05:34.288Z,102162.17
2022-11-10T23:08:31.539Z,102158.11
2022-11-10T23:12:02.733Z,102157.80
2022-11-10T23:14:58.276Z,102155.54
2022-11-10T23:17:45.784Z,102154.55
2022-11-10T23:20:33.228Z,102150.33
2022-11-10T23:23:20.898Z,102142.39
2022-11-10T23:26:11.097Z,102137.63
2022-11-10T23:28:58.811Z,102140.95
2022-11-10T23:31:46.453Z,102139.16
2022-11-10T23:34:34.895Z,102140.50
2022-11-10T23:37:26.407Z,102142.60
2022-11-10T23:40:14.448Z,102145.46
2022-11-10T23:43:01.903Z,102144.91
2022-11-10T23:48:59.295Z,102151.40
2022-11-10T23:51:48.966Z,102154.00
2022-11-10T23:54:36.131Z,102156.64
2022-11-10T23:57:23.689Z,102159.39
